Time;durP1;ratioP1;P1;durP2;ratioP2;P2;SDS_P1;SDS_P2;PMS_P1;PMS_P2;Temp;Humidity;BMP_temperature;BMP_pressure;BME280_temperature;BME280_humidity;BME280_pressure;Samples;Min_cycle;Max_cycle;Signal;HPM_P1;HPM_P2
2023/03/13 00:01:32;;;;;;;17.90;3.67;;;9.00;99.90;;;;;;4996858;28;19917;-74
2023/03/13 00:03:58;;;;;;;13.93;3.13;;;9.10;99.90;;;;;;4995105;28;20043;-72
2023/03/13 00:06:26;;;;;;;20.10;3.88;;;9.10;99.90;;;;;;4999510;28;20105;-74
2023/03/13 00:08:52;;;;;;;17.08;3.20;;;9.10;99.90;;;;;;5006418;28;20060;-76
2023/03/13 00:11:18;;;;;;;14.85;4.20;;;9.10;99.90;;;;;;4998328;28;21480;-73
2023/03/13 00:13:44;;;;;;;17.60;2.80;;;9.10;99.90;;;;;;5000439;28;20048;-75
2023/03/13 00:16:12;;;;;;;22.25;2.70;;;9.10;99.90;;;;;;5002144;28;20559;-74
2023/03/13 00:18:38;;;;;;;22.38;2.63;;;9.10;99.90;;;;;;5003243;28;20823;-74
2023/03/13 00:21:08;;;;;;;20.10;3.28;;;9.10;99.90;;;;;;4998236;28;20433;-75
2023/03/13 00:23:35;;;;;;;13.35;2.70;;;9.20;99.90;;;;;;5011343;28;20041;-74
2023/03/13 00:26:13;;;;;;;18.65;2.88;;;9.10;99.90;;;;;;5003367;28;20072;-76
2023/03/13 00:28:40;;;;;;;17.40;2.63;;;9.10;99.90;;;;;;4999636;28;20065;-73
2023/03/13 00:31:07;;;;;;;18.58;2.50;;;9.20;99.90;;;;;;4997722;28;20052;-74
2023/03/13 00:33:38;;;;;;;21.92;3.90;;;9.20;99.90;;;;;;5000035;28;20034;-74
2023/03/13 00:36:07;;;;;;;19.50;2.70;;;9.30;99.90;;;;;;4996528;28;20042;-74
2023/03/13 00:38:33;;;;;;;13.02;3.28;;;9.30;99.90;;;;;;4999434;28;20034;-74
2023/03/13 00:41:05;;;;;;;23.70;3.67;;;9.30;99.90;;;;;;4998351;28;20376;-76
2023/03/13 00:43:31;;;;;;;15.25;2.63;;;9.30;99.90;;;;;;4998108;28;20045;-74
2023/03/13 00:45:57;;;;;;;14.30;3.78;;;9.30;99.90;;;;;;4999478;28;20494;-74
2023/03/13 00:48:23;;;;;;;18.58;3.40;;;9.30;99.90;;;;;;4995830;28;20042;-74
2023/03/13 00:50:48;;;;;;;17.65;2.83;;;9.30;99.90;;;;;;5002227;28;20040;-75
2023/03/13 00:53:14;;;;;;;12.82;2.53;;;9.30;99.90;;;;;;4995711;28;20030;-74
2023/03/13 00:55:51;;;;;;;19.08;2.20;;;9.40;99.90;;;;;;5001425;28;20037;-75
2023/03/13 00:58:17;;;;;;;9.13;2.20;;;9.30;99.90;;;;;;4995592;28;20034;-72
2023/03/13 01:00:42;;;;;;;18.40;3.80;;;9.40;99.90;;;;;;5020291;28;20033;-74
2023/03/13 01:03:08;;;;;;;17.13;2.78;;;9.40;99.90;;;;;;4996092;28;20113;-73
2023/03/13 01:05:33;;;;;;;21.08;4.07;;;9.40;99.90;;;;;;4997961;28;20559;-72
2023/03/13 01:07:59;;;;;;;13.23;3.38;;;9.50;99.90;;;;;;4997698;28;20755;-73
2023/03/13 01:10:25;;;;;;;18.92;3.55;;;9.50;99.90;;;;;;4995714;28;20030;-71
2023/03/13 01:12:50;;;;;;;14.65;3.00;;;9.50;99.90;;;;;;4995956;28;20031;-74
2023/03/13 01:15:18;;;;;;;12.90;2.47;;;9.40;99.90;;;;;;4996449;28;20499;-73
2023/03/13 01:17:44;;;;;;;19.15;2.97;;;9.50;99.90;;;;;;5018308;28;20403;-75
2023/03/13 01:20:11;;;;;;;11.30;3.25;;;9.50;99.90;;;;;;4997081;28;20041;-73
2023/03/13 01:22:36;;;;;;;16.65;2.60;;;9.50;99.90;;;;;;4993749;28;20033;-74
2023/03/13 01:25:03;;;;;;;9.75;2.53;;;9.60;99.90;;;;;;4997127;28;20029;-71
2023/03/13 01:27:29;;;;;;;15.45;2.90;;;9.60;99.90;;;;;;5002582;28;20101;-73
2023/03/13 01:29:55;;;;;;;11.85;2.67;;;9.60;99.90;;;;;;4996193;28;20045;-74
2023/03/13 01:32:21;;;;;;;16.70;3.33;;;9.60;99.90;;;;;;5008095;28;20041;-73
2023/03/13 01:34:46;;;;;;;17.80;2.83;;;9.70;99.90;;;;;;5000548;28;20037;-74
2023/03/13 01:37:12;;;;;;;13.25;3.17;;;9.70;99.90;;;;;;5001579;28;20046;-75
2023/03/13 01:39:37;;;;;;;8.38;2.70;;;9.70;99.90;;;;;;5018072;28;20045;-73
2023/03/13 01:42:06;;;;;;;12.43;2.90;;;9.70;99.90;;;;;;4998983;28;20033;-72
2023/03/13 01:45:01;;;;;;;9.80;2.60;;;9.80;99.90;;;;;;4996034;28;20042;-74
2023/03/13 01:47:27;;;;;;;14.35;3.08;;;9.80;99.90;;;;;;4996586;28;20049;-74
2023/03/13 01:49:53;;;;;;;10.25;2.97;;;9.80;99.90;;;;;;4993178;28;20042;-76
2023/03/13 01:52:23;;;;;;;9.00;2.78;;;9.90;99.90;;;;;;4997470;28;20089;-74
2023/03/13 01:54:54;;;;;;;10.25;3.42;;;9.90;99.90;;;;;;4998220;28;20030;-76
2023/03/13 01:57:24;;;;;;;15.20;3.35;;;9.90;99.90;;;;;;4997406;28;20465;-72
2023/03/13 01:59:59;;;;;;;16.98;4.53;;;9.90;99.90;;;;;;4990591;28;20042;-72
2023/03/13 02:02:25;;;;;;;15.02;4.13;;;10.00;99.90;;;;;;4998925;28;20026;-74
2023/03/13 02:04:56;;;;;;;11.80;4.43;;;10.00;99.90;;;;;;5000095;28;20490;-72
2023/03/13 02:07:31;;;;;;;12.27;4.30;;;10.10;99.90;;;;;;5010877;28;20062;-70
2023/03/13 02:09:57;;;;;;;14.90;4.15;;;10.10;99.90;;;;;;5000437;28;20097;-74
2023/03/13 02:12:32;;;;;;;14.30;4.88;;;10.10;99.90;;;;;;4996514;28;20029;-76
2023/03/13 02:15:00;;;;;;;15.73;5.93;;;10.10;99.90;;;;;;4999564;28;20521;-74
2023/03/13 02:17:26;;;;;;;16.63;5.72;;;10.20;99.90;;;;;;5011231;28;20710;-74
2023/03/13 02:19:51;;;;;;;20.63;5.05;;;10.20;99.90;;;;;;4998735;28;20061;-74
2023/03/13 02:22:22;;;;;;;15.60;5.35;;;10.20;99.90;;;;;;5010571;28;20056;-74
2023/03/13 02:24:57;;;;;;;;;;;10.20;99.90;;;;;;5002528;28;20121;-72
2023/03/13 02:27:23;;;;;;;20.75;5.13;;;10.30;99.90;;;;;;5002848;28;20293;-73
2023/03/13 02:29:50;;;;;;;12.82;5.45;;;10.20;99.90;;;;;;4999632;28;20112;-73
2023/03/13 02:32:16;;;;;;;14.65;5.68;;;10.30;99.90;;;;;;4998625;28;20066;-73
2023/03/13 02:34:43;;;;;;;15.75;5.13;;;10.30;99.90;;;;;;5002377;28;20042;-72
2023/03/13 02:37:09;;;;;;;13.07;5.30;;;10.30;99.90;;;;;;4995159;28;20046;-74
2023/03/13 02:39:37;;;;;;;11.35;5.50;;;10.40;99.90;;;;;;5000363;28;20056;-70
2023/03/13 02:42:04;;;;;;;11.65;5.70;;;10.40;99.90;;;;;;5008210;28;20042;-70
2023/03/13 02:44:29;;;;;;;19.40;5.93;;;10.50;99.90;;;;;;5014580;28;20030;-70
2023/03/13 02:46:55;;;;;;;14.18;5.90;;;10.40;99.90;;;;;;5007612;28;20076;-75
2023/03/13 02:49:25;;;;;;;16.45;4.93;;;10.50;99.90;;;;;;4998567;28;20034;-72
2023/03/13 02:51:52;;;;;;;13.45;5.70;;;10.50;99.90;;;;;;5008195;28;20836;-71
2023/03/13 02:54:25;;;;;;;12.40;5.13;;;10.60;99.90;;;;;;5016050;28;20030;-70
2023/03/13 02:56:56;;;;;;;11.98;4.85;;;10.60;99.90;;;;;;5001134;28;20036;-72
2023/03/13 02:59:22;;;;;;;13.70;4.80;;;10.70;99.90;;;;;;5003689;28;20046;-73
2023/03/13 03:01:51;;;;;;;13.18;4.85;;;10.70;99.90;;;;;;5008594;28;20041;-72
2023/03/13 03:04:17;;;;;;;9.82;4.40;;;10.80;99.90;;;;;;5007850;28;20496;-70
2023/03/13 03:06:43;;;;;;;19.15;4.95;;;10.80;99.90;;;;;;5015129;28;20037;-72
2023/03/13 03:09:08;;;;;;;10.75;3.85;;;10.90;99.90;;;;;;5006125;28;20425;-76
2023/03/13 03:11:34;;;;;;;12.68;3.58;;;11.00;99.90;;;;;;5005643;28;20087;-72
2023/03/13 03:14:00;;;;;;;7.80;3.75;;;11.00;99.90;;;;;;5006677;28;20041;-74
2023/03/13 03:16:26;;;;;;;13.20;3.75;;;11.00;99.90;;;;;;5005985;28;20474;-75
2023/03/13 03:18:52;;;;;;;13.32;3.22;;;11.10;99.90;;;;;;5008405;28;20108;-70
2023/03/13 03:21:17;;;;;;;16.90;4.55;;;11.10;99.90;;;;;;5014399;28;20079;-69
2023/03/13 03:23:43;;;;;;;8.23;2.80;;;11.10;99.90;;;;;;5007789;28;20038;-72
2023/03/13 03:26:08;;;;;;;9.23;3.17;;;11.10;99.90;;;;;;5010440;28;20040;-73
2023/03/13 03:28:34;;;;;;;6.13;2.72;;;11.20;99.90;;;;;;5007520;28;20022;-70
2023/03/13 03:31:04;;;;;;;6.32;3.00;;;11.20;99.90;;;;;;5006021;28;20056;-72
2023/03/13 03:33:30;;;;;;;9.77;3.55;;;11.20;99.90;;;;;;5006091;28;20034;-69
2023/03/13 03:36:00;;;;;;;6.55;2.72;;;11.20;99.90;;;;;;5007818;28;20026;-71
2023/03/13 03:38:26;;;;;;;8.80;3.10;;;11.20;99.90;;;;;;5006960;28;20497;-74
2023/03/13 03:40:51;;;;;;;8.45;2.60;;;11.20;99.90;;;;;;5020594;28;20030;-71
2023/03/13 03:43:17;;;;;;;7.45;2.28;;;11.20;99.90;;;;;;5007218;28;20038;-72
2023/03/13 03:45:42;;;;;;;21.25;2.90;;;11.30;99.90;;;;;;5005272;28;20034;-72
2023/03/13 03:48:08;;;;;;;7.13;2.85;;;11.30;99.90;;;;;;5002541;28;20441;-75
2023/03/13 03:50:37;;;;;;;6.95;2.50;;;11.30;99.90;;;;;;5012630;28;20034;-74
2023/03/13 03:53:02;;;;;;;11.82;2.50;;;11.30;99.90;;;;;;5004961;28;20034;-70
2023/03/13 03:55:28;;;;;;;9.27;2.20;;;11.30;99.90;;;;;;5006498;28;20037;-76
2023/03/13 03:57:53;;;;;;;6.47;2.10;;;11.40;99.90;;;;;;5007383;28;20076;-71
2023/03/13 04:00:19;;;;;;;11.48;2.65;;;11.40;99.90;;;;;;5006276;28;20045;-74
2023/03/13 04:02:45;;;;;;;8.90;2.10;;;11.40;99.90;;;;;;5006464;28;20038;-71
2023/03/13 04:05:11;;;;;;;4.75;1.80;;;11.40;99.90;;;;;;5005271;28;20145;-72
2023/03/13 04:07:36;;;;;;;6.68;2.20;;;11.40;99.90;;;;;;5006772;28;20644;-72
2023/03/13 04:10:03;;;;;;;7.03;2.28;;;11.40;99.90;;;;;;5006163;28;20048;-71
2023/03/13 04:12:28;;;;;;;5.63;2.60;;;11.40;99.90;;;;;;5004489;28;20030;-70
2023/03/13 04:14:54;;;;;;;6.47;2.13;;;11.40;99.90;;;;;;5006933;28;20390;-71
2023/03/13 04:17:20;;;;;;;13.52;3.40;;;11.50;99.90;;;;;;5006679;28;20034;-72
2023/03/13 04:19:45;;;;;;;6.38;2.33;;;11.50;99.90;;;;;;5004690;28;20121;-77
2023/03/13 04:22:11;;;;;;;7.55;2.45;;;11.50;99.90;;;;;;5005401;28;20641;-69
2023/03/13 04:24:36;;;;;;;11.07;2.08;;;11.50;99.90;;;;;;5007135;28;20038;-70
2023/03/13 04:27:05;;;;;;;6.45;2.70;;;11.50;99.90;;;;;;5012450;28;20033;-72
2023/03/13 04:29:31;;;;;;;7.13;2.58;;;11.50;99.90;;;;;;5004915;28;20042;-72
2023/03/13 04:31:57;;;;;;;11.40;2.47;;;11.60;99.90;;;;;;5010425;28;20119;-69
2023/03/13 04:34:22;;;;;;;7.82;3.10;;;11.60;99.90;;;;;;5013693;28;20503;-74
2023/03/13 04:36:48;;;;;;;7.50;3.00;;;11.70;99.90;;;;;;5006314;28;20049;-73
2023/03/13 04:39:13;;;;;;;8.77;2.42;;;11.60;99.90;;;;;;5004313;28;20030;-70
2023/03/13 04:41:39;;;;;;;5.18;2.00;;;11.60;99.90;;;;;;5005144;28;20034;-70
2023/03/13 04:44:05;;;;;;;9.38;2.15;;;11.60;99.90;;;;;;5005219;28;20034;-73
2023/03/13 04:46:37;;;;;;;7.03;1.85;;;11.70;99.90;;;;;;5005840;28;20120;-71
2023/03/13 04:49:02;;;;;;;6.75;2.63;;;11.70;99.90;;;;;;5007880;28;20042;-74
2023/03/13 04:51:29;;;;;;;6.85;2.30;;;11.80;99.90;;;;;;5001914;28;20433;-73
2023/03/13 04:53:54;;;;;;;5.57;2.28;;;11.80;99.90;;;;;;5006008;28;20394;-73
2023/03/13 04:56:25;;;;;;;10.85;2.20;;;11.80;99.90;;;;;;5003722;28;20049;-71
2023/03/13 04:58:52;;;;;;;5.43;1.80;;;11.80;99.90;;;;;;5005914;28;20510;-71
2023/03/13 05:01:17;;;;;;;5.15;2.05;;;11.80;99.90;;;;;;5005524;28;20026;-70
2023/03/13 05:03:43;;;;;;;6.22;2.97;;;11.80;99.90;;;;;;5002512;28;20497;-73
2023/03/13 05:06:09;;;;;;;9.10;2.20;;;11.80;99.90;;;;;;5005637;28;20483;-70
2023/03/13 05:08:37;;;;;;;7.97;1.77;;;11.80;99.90;;;;;;5005871;28;20101;-69
2023/03/13 05:11:04;;;;;;;12.40;2.85;;;11.80;99.90;;;;;;5015136;28;20030;-72
2023/03/13 05:13:29;;;;;;;8.45;2.13;;;11.80;99.90;;;;;;5005990;28;20478;-69
2023/03/13 05:15:55;;;;;;;4.22;2.08;;;11.80;99.90;;;;;;5005971;28;20052;-73
2023/03/13 05:18:20;;;;;;;5.80;1.77;;;11.80;99.90;;;;;;5005572;28;20721;-73
2023/03/13 05:20:46;;;;;;;5.47;1.55;;;11.80;99.90;;;;;;5002241;28;20036;-71
2023/03/13 05:23:12;;;;;;;8.90;2.10;;;11.90;99.90;;;;;;5005233;28;20025;-71
2023/03/13 05:25:37;;;;;;;8.38;2.45;;;11.90;99.90;;;;;;5001352;28;20308;-73
2023/03/13 05:28:03;;;;;;;4.30;1.70;;;11.90;99.90;;;;;;5005319;28;20117;-70
2023/03/13 05:30:28;;;;;;;4.88;1.50;;;11.90;99.90;;;;;;5016058;28;20498;-70
2023/03/13 05:32:54;;;;;;;5.80;1.63;;;12.00;99.90;;;;;;5005558;28;20137;-72
2023/03/13 05:35:20;;;;;;;7.65;1.42;;;12.00;99.90;;;;;;5002030;28;20452;-74
2023/03/13 05:37:46;;;;;;;7.60;1.88;;;12.00;99.90;;;;;;5008821;28;20046;-72
2023/03/13 05:40:12;;;;;;;4.85;2.22;;;12.00;99.90;;;;;;4999749;28;20092;-74
2023/03/13 05:42:38;;;;;;;7.57;1.75;;;12.00;99.90;;;;;;5004769;28;20030;-74
2023/03/13 05:45:04;;;;;;;9.55;1.90;;;12.00;99.90;;;;;;5000299;28;20434;-70
2023/03/13 05:47:29;;;;;;;8.93;1.95;;;12.10;99.90;;;;;;5011132;28;20560;-78
2023/03/13 05:49:55;;;;;;;3.45;1.23;;;12.10;99.90;;;;;;4999502;28;20037;-70
2023/03/13 05:52:21;;;;;;;8.68;1.27;;;12.00;99.90;;;;;;5001265;28;20494;-74
2023/03/13 05:54:46;;;;;;;8.63;1.83;;;12.10;99.90;;;;;;5000378;28;20050;-74
2023/03/13 05:57:12;;;;;;;5.40;1.70;;;12.10;99.90;;;;;;5000762;28;20041;-75
2023/03/13 05:59:38;;;;;;;4.78;1.20;;;12.10;99.90;;;;;;4996452;28;20537;-73
2023/03/13 06:02:03;;;;;;;7.57;1.40;;;12.10;99.90;;;;;;5004437;28;20038;-70
2023/03/13 06:04:29;;;;;;;4.70;1.30;;;12.20;99.90;;;;;;5003627;28;20041;-73
2023/03/13 06:06:54;;;;;;;6.50;1.80;;;12.10;99.90;;;;;;5005482;28;20114;-69
2023/03/13 06:09:20;;;;;;;8.63;1.77;;;12.20;99.90;;;;;;5000312;28;20033;-73
2023/03/13 06:11:46;;;;;;;6.63;1.50;;;12.20;99.90;;;;;;5001296;28;20041;-71
2023/03/13 06:14:11;;;;;;;5.68;2.03;;;12.10;99.90;;;;;;4998775;28;20036;-76
2023/03/13 06:16:37;;;;;;;7.32;1.60;;;12.20;99.90;;;;;;5001496;28;20038;-70
2023/03/13 06:19:02;;;;;;;9.32;2.83;;;12.20;99.90;;;;;;4999951;28;20085;-72
2023/03/13 06:21:28;;;;;;;4.60;1.08;;;12.20;99.90;;;;;;5001037;28;20034;-73
2023/03/13 06:23:54;;;;;;;8.27;1.45;;;12.30;99.90;;;;;;5001530;28;20604;-75
2023/03/13 06:26:20;;;;;;;7.63;1.77;;;12.30;99.90;;;;;;4998048;28;20022;-74
2023/03/13 06:28:47;;;;;;;11.55;1.48;;;12.30;99.90;;;;;;4999131;28;20749;-73
2023/03/13 06:31:13;;;;;;;7.20;1.90;;;12.30;99.90;;;;;;5000012;28;20022;-72
2023/03/13 06:33:38;;;;;;;4.90;1.42;;;12.30;99.90;;;;;;5000669;28;20052;-74
2023/03/13 06:36:04;;;;;;;7.25;1.45;;;12.30;99.90;;;;;;5001554;28;20022;-72
2023/03/13 06:38:30;;;;;;;11.05;1.63;;;12.40;99.90;;;;;;5000439;28;20029;-72
2023/03/13 06:40:56;;;;;;;4.85;1.80;;;12.40;99.90;;;;;;5002315;28;20398;-73
2023/03/13 06:43:22;;;;;;;4.13;1.45;;;12.40;99.90;;;;;;4998967;28;20072;-74
2023/03/13 06:45:48;;;;;;;9.27;1.23;;;12.40;99.90;;;;;;5004736;28;20042;-76
2023/03/13 06:48:14;;;;;;;6.05;1.67;;;12.40;99.90;;;;;;5001707;28;20037;-71
2023/03/13 06:50:40;;;;;;;8.60;2.40;;;12.40;99.90;;;;;;5005266;28;20046;-72
2023/03/13 06:53:06;;;;;;;5.82;1.73;;;12.40;99.90;;;;;;5003359;28;20037;-71
2023/03/13 06:55:32;;;;;;;3.17;1.00;;;12.40;99.90;;;;;;5004889;28;20398;-70
2023/03/13 06:57:58;;;;;;;7.05;1.52;;;12.40;99.90;;;;;;5005202;28;20042;-76
2023/03/13 07:00:23;;;;;;;3.72;1.00;;;12.30;99.90;;;;;;5002185;28;20437;-70
2023/03/13 07:02:50;;;;;;;7.65;1.88;;;12.30;99.90;;;;;;5004451;28;20045;-73
2023/03/13 07:05:16;;;;;;;8.00;1.58;;;12.20;99.90;;;;;;5004211;28;20030;-71
2023/03/13 07:07:42;;;;;;;7.60;1.50;;;12.20;99.90;;;;;;5004913;28;20033;-72
2023/03/13 07:10:09;;;;;;;9.90;2.53;;;12.10;99.90;;;;;;5003901;28;20034;-72
2023/03/13 07:12:35;;;;;;;6.30;1.83;;;12.10;99.90;;;;;;5002655;28;20103;-75
2023/03/13 07:15:04;;;;;;;6.57;1.60;;;12.00;99.90;;;;;;5004604;28;20038;-75
2023/03/13 07:17:30;;;;;;;10.25;1.90;;;12.00;99.90;;;;;;5003876;28;20092;-73
2023/03/13 07:19:56;;;;;;;7.88;1.80;;;11.90;99.90;;;;;;5005022;28;20038;-75
2023/03/13 07:22:21;;;;;;;6.00;1.92;;;11.90;99.90;;;;;;5006031;28;20845;-73
2023/03/13 07:24:47;;;;;;;3.17;1.60;;;11.90;99.90;;;;;;5002124;28;20129;-71
2023/03/13 07:27:13;;;;;;;16.42;2.50;;;11.90;99.90;;;;;;5005042;28;20030;-71
2023/03/13 07:29:39;;;;;;;8.90;1.77;;;11.80;99.90;;;;;;5003620;28;20034;-71
2023/03/13 07:32:05;;;;;;;7.18;1.63;;;11.80;99.90;;;;;;5003446;28;20088;-70
2023/03/13 07:34:30;;;;;;;9.32;2.75;;;11.80;99.90;;;;;;5020312;28;20038;-74
2023/03/13 07:36:56;;;;;;;9.27;2.22;;;11.80;99.90;;;;;;5004524;28;20127;-73
2023/03/13 07:39:22;;;;;;;5.38;2.53;;;11.80;99.90;;;;;;5003633;28;20152;-75
2023/03/13 07:41:47;;;;;;;8.73;2.67;;;11.80;99.90;;;;;;5002237;28;20037;-73
2023/03/13 07:44:13;;;;;;;8.05;1.70;;;11.80;99.90;;;;;;5015196;28;20677;-74
2023/03/13 07:46:38;;;;;;;8.07;2.00;;;11.80;99.90;;;;;;5003309;28;20088;-76
2023/03/13 07:49:04;;;;;;;9.73;2.20;;;11.80;99.90;;;;;;5004569;28;20558;-70
2023/03/13 07:51:29;;;;;;;10.23;2.22;;;11.80;99.90;;;;;;5002033;28;20069;-75
2023/03/13 07:53:55;;;;;;;10.02;2.03;;;11.80;99.90;;;;;;5002743;28;20034;-71
2023/03/13 07:56:22;;;;;;;9.75;2.70;;;11.80;99.90;;;;;;5003509;28;20394;-69
2023/03/13 07:58:49;;;;;;;7.43;1.45;;;11.80;99.90;;;;;;5001267;28;20065;-71
2023/03/13 08:01:23;;;;;;;4.43;1.58;;;11.80;99.90;;;;;;5004926;28;20129;-74
2023/03/13 08:03:49;;;;;;;12.02;3.78;;;11.80;99.90;;;;;;5005291;28;20997;-71
2023/03/13 08:06:18;;;;;;;4.13;1.63;;;11.90;99.90;;;;;;5004093;28;20034;-70
2023/03/13 08:08:44;;;;;;;2.45;1.00;;;12.00;99.90;;;;;;5001311;28;20049;-75
2023/03/13 08:11:13;;;;;;;6.20;1.85;;;12.20;99.90;;;;;;5002380;28;20030;-74
2023/03/13 08:13:40;;;;;;;8.52;1.35;;;12.30;99.90;;;;;;5004960;28;20040;-72
2023/03/13 08:16:08;;;;;;;5.93;1.33;;;12.30;99.90;;;;;;5003702;28;20026;-73
2023/03/13 08:18:35;;;;;;;6.38;1.20;;;12.40;99.90;;;;;;5001628;28;20041;-73
2023/03/13 08:21:07;;;;;;;4.57;1.50;;;12.30;99.90;;;;;;5004483;28;20030;-73
2023/03/13 08:23:33;;;;;;;5.57;1.25;;;12.30;99.90;;;;;;5004125;28;20563;-74
2023/03/13 08:26:10;;;;;;;5.93;1.42;;;12.40;99.90;;;;;;5003474;28;20080;-74
2023/03/13 08:28:36;;;;;;;5.03;1.60;;;12.40;99.90;;;;;;5003274;28;20490;-71
2023/03/13 08:31:15;;;;;;;4.70;1.40;;;12.50;99.90;;;;;;5003099;28;20402;-76
2023/03/13 08:33:42;;;;;;;6.28;1.30;;;12.40;99.90;;;;;;4999451;28;20565;-75
2023/03/13 08:36:11;;;;;;;6.75;1.83;;;12.40;99.90;;;;;;5004548;28;20112;-72
2023/03/13 08:38:37;;;;;;;3.83;1.10;;;12.40;99.90;;;;;;5005516;28;20030;-73
2023/03/13 08:41:03;;;;;;;6.15;1.20;;;12.40;99.90;;;;;;5002483;28;20045;-72
2023/03/13 08:43:28;;;;;;;6.20;1.20;;;12.40;99.90;;;;;;5000200;28;20030;-71
2023/03/13 08:45:55;;;;;;;8.90;2.35;;;12.40;99.90;;;;;;4999433;28;20041;-73
2023/03/13 08:48:20;;;;;;;1.85;0.70;;;12.40;99.90;;;;;;4998976;28;20030;-76
2023/03/13 08:50:46;;;;;;;3.88;1.00;;;12.40;99.90;;;;;;4997645;28;20044;-75
2023/03/13 08:53:12;;;;;;;5.57;1.42;;;12.40;99.90;;;;;;5000696;28;20041;-72
2023/03/13 08:55:37;;;;;;;3.05;0.93;;;12.40;99.90;;;;;;5002324;28;20569;-73
2023/03/13 08:58:03;;;;;;;5.78;1.67;;;12.30;99.90;;;;;;4999770;28;20072;-76
2023/03/13 09:00:29;;;;;;;2.63;1.10;;;12.30;99.90;;;;;;4998358;28;20184;-74
2023/03/13 09:02:58;;;;;;;7.07;1.00;;;12.30;99.90;;;;;;5000800;28;20482;-72
2023/03/13 09:05:23;;;;;;;4.05;1.35;;;12.40;99.90;;;;;;4998189;28;20037;-75
2023/03/13 09:07:49;;;;;;;5.38;1.20;;;12.60;99.90;;;;;;4999339;28;20713;-74
2023/03/13 09:10:15;;;;;;;3.90;1.13;;;12.80;99.90;;;;;;5000650;28;20041;-71
2023/03/13 09:12:41;;;;;;;9.82;0.85;;;13.00;99.90;;;;;;4997523;28;20136;-74
2023/03/13 09:15:07;;;;;;;6.38;1.67;;;13.20;99.90;;;;;;4998587;28;20092;-72
2023/03/13 09:17:33;;;;;;;5.88;1.77;;;13.40;99.90;;;;;;4999025;28;20037;-72
2023/03/13 09:19:58;;;;;;;2.95;1.20;;;13.60;99.90;;;;;;4999745;28;20418;-75
2023/03/13 09:22:24;;;;;;;5.60;1.30;;;13.70;99.90;;;;;;4996899;28;20058;-75
2023/03/13 09:24:49;;;;;;;4.50;1.00;;;13.80;99.90;;;;;;5000202;28;20036;-73
2023/03/13 09:27:15;;;;;;;4.88;0.98;;;14.00;99.90;;;;;;5003541;28;20038;-72
2023/03/13 09:29:41;;;;;;;5.47;1.25;;;14.20;99.90;;;;;;4997216;28;20040;-72
2023/03/13 09:32:09;;;;;;;3.10;1.15;;;14.30;99.90;;;;;;4997545;28;20037;-74
2023/03/13 09:34:34;;;;;;;3.72;1.25;;;14.50;99.90;;;;;;4998107;28;20057;-73
2023/03/13 09:37:03;;;;;;;4.88;0.90;;;14.80;99.90;;;;;;4999944;28;20524;-72
2023/03/13 09:39:28;;;;;;;3.03;0.63;;;15.00;99.90;;;;;;5014191;28;20052;-71
2023/03/13 09:42:13;;;;;;;3.45;0.77;;;15.00;99.90;;;;;;5000725;28;20034;-72
2023/03/13 09:45:16;;;;;;;2.42;0.50;;;15.10;99.90;;;;;;4998602;28;20037;-71
2023/03/13 09:47:51;;;;;;;3.33;0.88;;;15.10;99.90;;;;;;4999692;28;20144;-70
2023/03/13 09:50:30;;;;;;;5.70;0.80;;;15.10;99.90;;;;;;4998391;28;20083;-74
2023/03/13 09:53:12;;;;;;;7.95;1.10;;;15.10;99.90;;;;;;4998634;28;20026;-74
2023/03/13 09:55:40;;;;;;;3.72;0.50;;;15.20;99.90;;;;;;4999357;28;20038;-74
2023/03/13 09:58:18;;;;;;;2.13;0.57;;;15.30;99.90;;;;;;4997454;28;20034;-74
2023/03/13 10:01:04;;;;;;;2.20;0.50;;;15.40;99.90;;;;;;4997963;28;20042;-73
2023/03/13 10:03:43;;;;;;;4.32;0.82;;;15.40;99.90;;;;;;4998137;28;20053;-73
2023/03/13 10:06:19;;;;;;;1.88;0.52;;;15.50;99.90;;;;;;4998732;28;20045;-74
2023/03/13 10:08:45;;;;;;;2.58;0.35;;;15.60;99.90;;;;;;4998643;28;20064;-71
2023/03/13 10:11:28;;;;;;;2.85;0.40;;;15.70;99.90;;;;;;4996628;28;20506;-74
2023/03/13 10:14:11;;;;;;;5.28;0.73;;;15.80;99.90;;;;;;4995381;28;20410;-74
2023/03/13 10:16:47;;;;;;;4.28;0.55;;;15.70;99.90;;;;;;4996278;28;20141;-72
2023/03/13 10:19:31;;;;;;;2.70;1.13;;;15.70;99.90;;;;;;4996836;28;20072;-72
2023/03/13 10:22:00;;;;;;;5.30;0.50;;;15.80;99.90;;;;;;4997477;28;20040;-73
2023/03/13 10:24:31;;;;;;;15.98;1.08;;;15.90;99.90;;;;;;4997784;28;20066;-71
2023/03/13 10:26:57;;;;;;;1.85;0.30;;;16.00;99.90;;;;;;5004438;28;20040;-74
2023/03/13 10:29:25;;;;;;;2.63;0.50;;;15.90;99.90;;;;;;5002174;28;20045;-73
2023/03/13 10:31:55;;;;;;;2.22;1.00;;;15.80;99.90;;;;;;5000720;28;20030;-74
2023/03/13 10:34:20;;;;;;;1.38;0.50;;;15.80;99.90;;;;;;5002882;28;20049;-72
2023/03/13 10:36:48;;;;;;;1.50;0.50;;;15.80;99.90;;;;;;5000553;28;20042;-70
2023/03/13 10:39:16;;;;;;;2.65;0.40;;;15.90;99.90;;;;;;4999093;28;20062;-74
2023/03/13 10:41:42;;;;;;;5.85;0.50;;;15.90;99.90;;;;;;5000796;28;20042;-72
2023/03/13 10:44:16;;;;;;;5.15;1.38;;;16.00;99.90;;;;;;5000171;28;20196;-70
2023/03/13 10:46:45;;;;;;;2.65;0.55;;;16.10;99.90;;;;;;5001277;28;20080;-71
2023/03/13 10:49:17;;;;;;;4.03;0.50;;;16.10;99.90;;;;;;5017701;28;20116;-72
2023/03/13 10:51:52;;;;;;;2.92;0.30;;;16.20;99.90;;;;;;5000325;28;20034;-74
2023/03/13 10:54:34;;;;;;;7.07;0.40;;;16.10;99.90;;;;;;5000424;28;20042;-74
2023/03/13 10:57:18;;;;;;;3.13;0.47;;;16.10;99.90;;;;;;5001022;28;20104;-74
2023/03/13 10:59:46;;;;;;;3.88;0.68;;;16.10;99.90;;;;;;5018926;28;20048;-74
2023/03/13 11:02:38;;;;;;;3.75;0.55;;;16.20;99.90;;;;;;5002969;28;20849;-73
2023/03/13 11:05:38;;;;;;;1.98;0.40;;;16.30;99.90;;;;;;4999851;28;20509;-74
2023/03/13 11:08:24;;;;;;;4.22;0.73;;;16.30;99.90;;;;;;4974971;28;20166;-74
2023/03/13 11:11:17;;;;;;;5.32;0.93;;;16.20;99.90;;;;;;4998501;28;20036;-73
2023/03/13 11:13:43;;;;;;;2.95;0.50;;;16.20;99.90;;;;;;5002015;28;20030;-73
2023/03/13 11:16:25;;;;;;;3.15;0.47;;;16.10;99.90;;;;;;5000926;28;20042;-72
2023/03/13 11:19:18;;;;;;;4.05;0.52;;;16.10;99.90;;;;;;5004067;28;20046;-72
2023/03/13 11:21:55;;;;;;;7.95;0.60;;;16.20;99.90;;;;;;5003499;28;20104;-72
2023/03/13 11:24:52;;;;;;;3.13;1.02;;;16.30;99.90;;;;;;4995891;28;20124;-74
2023/03/13 11:27:34;;;;;;;2.65;0.60;;;16.40;99.90;;;;;;4997735;28;20064;-73
2023/03/13 11:30:12;;;;;;;6.45;0.70;;;16.40;99.90;;;;;;4999920;28;20487;-78
2023/03/13 11:33:02;;;;;;;3.42;0.38;;;16.50;99.90;;;;;;5001334;28;20040;-75
2023/03/13 11:35:49;;;;;;;1.23;0.40;;;16.50;99.90;;;;;;4997826;28;20088;-73
2023/03/13 11:38:26;;;;;;;2.45;0.52;;;16.50;99.90;;;;;;5001690;28;20050;-72
2023/03/13 11:41:20;;;;;;;5.88;0.70;;;16.50;99.90;;;;;;5000802;28;20104;-75
2023/03/13 11:44:07;;;;;;;2.85;0.40;;;16.50;99.90;;;;;;5003057;28;20041;-70
2023/03/13 11:46:36;;;;;;;3.13;0.52;;;16.50;99.90;;;;;;5001215;28;20718;-75
2023/03/13 11:49:35;;;;;;;1.17;0.35;;;16.40;99.90;;;;;;5000437;28;20030;-76
2023/03/13 11:52:21;;;;;;;2.17;0.35;;;16.40;99.90;;;;;;5000604;28;20744;-73
2023/03/13 11:54:58;;;;;;;5.15;0.52;;;16.30;99.90;;;;;;5000974;28;20034;-72
2023/03/13 11:57:44;;;;;;;7.35;1.15;;;16.20;99.90;;;;;;5000814;28;20514;-73
2023/03/13 12:00:27;;;;;;;7.18;0.80;;;16.10;99.90;;;;;;5000634;28;20132;-72
2023/03/13 12:03:04;;;;;;;3.42;0.70;;;16.00;99.90;;;;;;5000918;28;20532;-71
2023/03/13 12:05:40;;;;;;;4.97;0.52;;;15.80;99.90;;;;;;5015388;28;20041;-72
2023/03/13 12:08:30;;;;;;;4.10;0.63;;;15.70;99.90;;;;;;4998340;28;20647;-72
2023/03/13 12:11:12;;;;;;;4.65;1.48;;;15.70;99.90;;;;;;4998806;28;20042;-74
2023/03/13 12:13:41;;;;;;;3.85;0.50;;;15.70;99.90;;;;;;4999697;28;20070;-73
2023/03/13 12:16:13;;;;;;;7.90;1.30;;;15.80;99.90;;;;;;5000639;28;21521;-73
2023/03/13 12:18:41;;;;;;;3.22;0.60;;;15.90;99.90;;;;;;5000870;28;20030;-76
2023/03/13 12:21:28;;;;;;;4.15;0.57;;;16.00;99.90;;;;;;4999863;28;20058;-75
2023/03/13 12:24:21;;;;;;;6.15;0.82;;;16.10;99.90;;;;;;5000782;28;20507;-71
2023/03/13 12:27:10;;;;;;;6.43;0.70;;;16.20;99.90;;;;;;5002965;28;20034;-74
2023/03/13 12:29:48;;;;;;;5.40;0.50;;;16.20;99.90;;;;;;4998085;28;20037;-73
2023/03/13 12:32:17;;;;;;;4.00;1.20;;;16.30;99.90;;;;;;5000531;28;20878;-73
2023/03/13 12:35:11;;;;;;;4.90;1.15;;;16.30;99.90;;;;;;5017383;28;20038;-71
2023/03/13 12:38:14;;;;;;;7.70;0.98;;;16.30;99.90;;;;;;5003279;28;20437;-71
2023/03/13 12:41:00;;;;;;;9.68;1.30;;;16.30;99.90;;;;;;5016329;28;20049;-75
2023/03/13 12:43:31;;;;;;;5.97;0.82;;;16.20;99.90;;;;;;4999415;28;20046;-73
2023/03/13 12:45:57;;;;;;;2.97;0.70;;;16.10;99.90;;;;;;5000146;28;20026;-69
2023/03/13 12:48:40;;;;;;;7.90;1.50;;;16.20;99.90;;;;;;5000212;28;20065;-73
2023/03/13 12:51:31;;;;;;;9.77;1.48;;;16.20;99.90;;;;;;4999967;28;20041;-71
2023/03/13 12:54:02;;;;;;;6.90;1.83;;;16.20;99.90;;;;;;5002920;28;20042;-72
2023/03/13 12:56:46;;;;;;;10.65;0.90;;;16.20;99.90;;;;;;5001055;28;20049;-70
2023/03/13 12:59:29;;;;;;;6.07;1.00;;;16.20;99.90;;;;;;5000295;28;20038;-72